Time;durP1;ratioP1;P1;durP2;ratioP2;P2;SDS_P1;SDS_P2;PMS_P1;PMS_P2;Temp;Humidity;BMP_temperature;BMP_pressure;BME280_temperature;BME280_humidity;BME280_pressure;Samples;Min_cycle;Max_cycle;Signal;HPM_P1;HPM_P2
2022/07/12 00:01:05;;;;;;;5.93;5.20;;;16.30;99.90;;;;;;5052748;28;20075;-70
2022/07/12 00:03:31;;;;;;;6.43;5.18;;;16.40;99.90;;;;;;5053431;28;20028;-71
2022/07/12 00:05:57;;;;;;;9.45;5.95;;;17.60;99.90;;;;;;5053131;28;20032;-70
2022/07/12 00:08:23;;;;;;;11.10;6.70;;;16.10;99.90;;;;;;5036692;28;20052;-71
2022/07/12 00:10:50;;;;;;;9.65;6.70;;;16.40;99.90;;;;;;5050115;28;20391;-70
2022/07/12 00:13:15;;;;;;;7.47;6.00;;;16.50;99.90;;;;;;5072971;28;20047;-70
2022/07/12 00:15:42;;;;;;;10.70;6.35;;;16.30;99.90;;;;;;5056759;28;20032;-70
2022/07/12 00:18:08;;;;;;;9.00;6.80;;;17.40;99.90;;;;;;5056864;28;20090;-70
2022/07/12 00:20:34;;;;;;;11.05;7.07;;;16.40;99.90;;;;;;5056201;28;20040;-70
2022/07/12 00:22:59;;;;;;;9.23;6.43;;;16.60;99.90;;;;;;5064341;28;20024;-71
2022/07/12 00:25:26;;;;;;;10.32;6.28;;;16.90;99.90;;;;;;5065503;28;20035;-70
2022/07/12 00:27:52;;;;;;;8.68;7.00;;;16.10;99.90;;;;;;5029695;28;20041;-70
2022/07/12 00:30:18;;;;;;;9.85;7.53;;;16.40;99.90;;;;;;5074361;28;20064;-71
2022/07/12 00:32:44;;;;;;;7.53;6.38;;;16.40;99.90;;;;;;5056778;28;20067;-69
2022/07/12 00:35:10;;;;;;;8.70;6.68;;;17.10;99.90;;;;;;5056506;28;20510;-71
2022/07/12 00:37:36;;;;;;;8.00;6.47;;;17.10;99.90;;;;;;5040087;28;20078;-70
2022/07/12 00:40:04;;;;;;;8.25;5.80;;;16.30;99.90;;;;;;5056145;28;20032;-70
2022/07/12 00:42:30;;;;;;;8.32;6.45;;;16.20;99.90;;;;;;5064036;22;20053;-70
2022/07/12 00:44:55;;;;;;;7.35;5.57;;;16.10;99.90;;;;;;5053240;28;20037;-71
2022/07/12 00:47:44;;;;;;;7.95;5.10;;;16.70;99.90;;;;;;5054867;28;20094;-71
2022/07/12 00:50:21;;;;;;;7.13;5.55;;;16.00;99.90;;;;;;5054300;28;20040;-71
2022/07/12 00:52:48;;;;;;;6.85;5.57;;;16.30;99.90;;;;;;5054369;28;20029;-70
2022/07/12 00:55:15;;;;;;;9.88;6.32;;;16.80;99.90;;;;;;5054324;28;20075;-70
2022/07/12 00:57:45;;;;;;;8.90;5.75;;;16.10;99.90;;;;;;5036599;28;20136;-72
2022/07/12 01:00:14;;;;;;;9.68;6.38;;;16.00;99.90;;;;;;5052809;28;20033;-70
2022/07/12 01:02:41;;;;;;;10.20;6.65;;;16.10;99.90;;;;;;5053036;28;20102;-71
2022/07/12 01:05:08;;;;;;;8.55;6.60;;;16.10;99.90;;;;;;5054232;28;20051;-70
2022/07/12 01:07:34;;;;;;;7.82;5.50;;;16.00;99.90;;;;;;5052757;28;20045;-72
2022/07/12 01:10:01;;;;;;;7.13;5.80;;;16.00;99.90;;;;;;5053790;28;20037;-71
2022/07/12 01:12:27;;;;;;;8.07;5.57;;;17.00;99.90;;;;;;5052616;28;20059;-71
2022/07/12 01:14:53;;;;;;;8.27;5.75;;;15.80;99.90;;;;;;5052854;28;20037;-70
2022/07/12 01:17:25;;;;;;;6.68;5.07;;;15.80;99.90;;;;;;5052716;28;20423;-70
2022/07/12 01:19:57;;;;;;;7.35;5.70;;;15.80;99.90;;;;;;5053489;28;20406;-70
2022/07/12 01:22:30;;;;;;;9.48;5.68;;;16.20;99.90;;;;;;5053650;28;20029;-70
2022/07/12 01:24:56;;;;;;;8.30;6.38;;;15.90;99.90;;;;;;5052446;28;20037;-70
2022/07/12 01:27:21;;;;;;;6.32;5.65;;;15.90;99.90;;;;;;5052316;28;20064;-71
2022/07/12 01:29:47;;;;;;;6.53;4.90;;;16.70;99.90;;;;;;5053275;28;20044;-71
2022/07/12 01:32:24;;;;;;;6.53;5.07;;;16.00;99.90;;;;;;5053530;28;20159;-70
2022/07/12 01:35:10;;;;;;;7.30;5.70;;;16.10;99.90;;;;;;5053381;28;20170;-71
2022/07/12 01:37:38;;;;;;;7.82;4.97;;;16.00;99.90;;;;;;5053348;28;20514;-70
2022/07/12 01:40:06;;;;;;;6.53;4.93;;;15.90;99.90;;;;;;5052123;28;20445;-71
2022/07/12 01:42:32;;;;;;;7.07;4.78;;;15.90;99.90;;;;;;5053496;28;20102;-71
2022/07/12 01:44:58;;;;;;;5.15;4.20;;;16.70;99.90;;;;;;5053373;28;20503;-69
2022/07/12 01:47:27;;;;;;;7.25;4.80;;;15.70;99.90;;;;;;5051991;28;20049;-69
2022/07/12 01:49:53;;;;;;;5.63;4.65;;;15.60;99.90;;;;;;5035095;28;20143;-70
2022/07/12 01:52:19;;;;;;;8.38;4.53;;;15.80;99.90;;;;;;5051917;28;20502;-69
2022/07/12 01:54:46;;;;;;;6.80;5.47;;;15.80;99.90;;;;;;5052032;28;20082;-69
2022/07/12 01:57:12;;;;;;;7.32;4.53;;;16.50;99.90;;;;;;5051833;28;20479;-69
2022/07/12 01:59:39;;;;;;;8.77;4.63;;;15.70;99.90;;;;;;5052859;28;20048;-70
2022/07/12 02:02:04;;;;;;;5.63;3.75;;;15.80;99.90;;;;;;5053032;28;20033;-69
2022/07/12 02:04:30;;;;;;;5.72;3.90;;;16.20;99.90;;;;;;5053248;28;20044;-70
2022/07/12 02:06:56;;;;;;;11.93;5.50;;;15.80;99.90;;;;;;5051665;28;20053;-70
2022/07/12 02:09:22;;;;;;;47.65;5.80;;;15.50;99.90;;;;;;5034773;28;20037;-69
2022/07/12 02:11:48;;;;;;;15.90;5.43;;;15.40;99.90;;;;;;5051450;28;20048;-70
2022/07/12 02:14:15;;;;;;;7.95;4.82;;;16.20;99.90;;;;;;5051643;28;20040;-69
2022/07/12 02:16:41;;;;;;;11.93;4.78;;;16.10;99.90;;;;;;5034909;28;20083;-69
2022/07/12 02:19:07;;;;;;;18.25;4.47;;;15.90;99.90;;;;;;5050906;28;20041;-68
2022/07/12 02:21:33;;;;;;;21.92;4.90;;;16.10;99.90;;;;;;5051337;28;20562;-69
2022/07/12 02:24:00;;;;;;;11.27;4.30;;;15.50;99.90;;;;;;5051721;28;20143;-69
2022/07/12 02:26:27;;;;;;;8.45;4.78;;;16.30;99.90;;;;;;5051324;28;20033;-69
2022/07/12 02:28:53;;;;;;;26.23;5.43;;;15.20;99.90;;;;;;5051367;28;20041;-69
2022/07/12 02:31:18;;;;;;;20.45;5.55;;;15.60;99.90;;;;;;5052395;28;20502;-69
2022/07/12 02:33:44;;;;;;;21.48;6.05;;;15.60;99.90;;;;;;5051102;28;20124;-69
2022/07/12 02:36:10;;;;;;;8.90;5.25;;;15.60;99.90;;;;;;5050645;28;20040;-69
2022/07/12 02:38:35;;;;;;;7.03;4.57;;;16.50;99.90;;;;;;5052461;28;20509;-69
2022/07/12 02:41:01;;;;;;;42.88;5.78;;;15.50;99.90;;;;;;5050493;28;20033;-70
2022/07/12 02:43:29;;;;;;;8.43;4.22;;;15.60;99.90;;;;;;5050943;28;20067;-69
2022/07/12 02:46:04;;;;;;;8.52;3.95;;;16.20;99.90;;;;;;5052530;28;20045;-69
2022/07/12 02:48:29;;;;;;;6.95;4.68;;;17.10;99.90;;;;;;5052539;28;20045;-70
2022/07/12 02:50:55;;;;;;;7.28;5.03;;;15.50;99.90;;;;;;5034276;28;20086;-71
2022/07/12 02:53:21;;;;;;;19.77;4.78;;;15.50;99.90;;;;;;5052100;28;20047;-69
2022/07/12 02:55:47;;;;;;;56.80;6.07;;;15.70;99.90;;;;;;5050884;28;20041;-69
2022/07/12 02:58:12;;;;;;;13.40;5.05;;;15.40;99.90;;;;;;5050966;28;20455;-69
2022/07/12 03:00:38;;;;;;;39.95;4.65;;;15.40;99.90;;;;;;5050318;28;20448;-69
2022/07/12 03:03:07;;;;;;;7.47;3.72;;;15.40;99.90;;;;;;5051988;28;20518;-69
2022/07/12 03:05:33;;;;;;;16.02;3.67;;;15.50;99.90;;;;;;5050644;28;20049;-69
2022/07/12 03:07:59;;;;;;;18.23;4.53;;;15.50;99.90;;;;;;5051943;28;20073;-69
2022/07/12 03:10:25;;;;;;;12.13;4.00;;;15.50;99.90;;;;;;5050128;28;20206;-70
2022/07/12 03:12:50;;;;;;;16.05;3.80;;;15.30;99.90;;;;;;5050579;28;20041;-71
2022/07/12 03:15:16;;;;;;;31.48;5.00;;;15.30;99.90;;;;;;5051766;28;20032;-69
2022/07/12 03:17:42;;;;;;;5.68;3.55;;;15.30;99.90;;;;;;5050308;28;20110;-69
2022/07/12 03:20:11;;;;;;;5.50;3.60;;;16.50;99.90;;;;;;5033106;28;20124;-69
2022/07/12 03:22:37;;;;;;;18.30;4.15;;;15.30;99.90;;;;;;5051656;28;20037;-69
2022/07/12 03:25:03;;;;;;;11.82;3.40;;;15.30;99.90;;;;;;5033815;28;20435;-71
2022/07/12 03:27:31;;;;;;;9.15;3.03;;;15.20;99.90;;;;;;5051632;28;20036;-71
2022/07/12 03:29:57;;;;;;;6.90;3.13;;;15.90;99.90;;;;;;5049891;28;20549;-69
2022/07/12 03:32:23;;;;;;;6.75;3.40;;;15.40;99.90;;;;;;5051495;28;20045;-69
2022/07/12 03:34:48;;;;;;;15.55;3.80;;;16.00;99.90;;;;;;5050283;28;20052;-69
2022/07/12 03:37:14;;;;;;;11.15;3.10;;;15.00;99.90;;;;;;5051634;28;20033;-70
2022/07/12 03:39:39;;;;;;;7.05;2.75;;;15.00;99.90;;;;;;5049835;28;20044;-69
2022/07/12 03:42:05;;;;;;;8.27;2.60;;;15.20;99.90;;;;;;5050225;28;20549;-69
2022/07/12 03:44:31;;;;;;;6.18;2.28;;;15.20;99.90;;;;;;5050069;28;20044;-69
2022/07/12 03:46:56;;;;;;;3.20;2.25;;;15.20;99.90;;;;;;5050469;28;20522;-70
2022/07/12 03:49:22;;;;;;;6.30;2.60;;;15.20;99.90;;;;;;5049641;28;20467;-69
2022/07/12 03:51:47;;;;;;;5.97;2.38;;;17.40;99.90;;;;;;5049955;28;20054;-69
2022/07/12 03:54:13;;;;;;;6.35;2.33;;;15.00;99.90;;;;;;5051384;28;20567;-69
2022/07/12 03:59:23;;;;;;;4.90;2.30;;;15.40;99.90;;;;;;5049635;28;20052;-69
2022/07/12 04:01:49;;;;;;;13.30;2.58;;;15.00;99.90;;;;;;5051103;28;20037;-69
2022/07/12 04:04:14;;;;;;;11.40;2.30;;;15.00;99.90;;;;;;5051117;28;20116;-69
2022/07/12 04:06:40;;;;;;;23.15;3.35;;;15.00;99.90;;;;;;5050102;28;20171;-69
2022/07/12 04:09:06;;;;;;;6.70;2.42;;;15.40;99.90;;;;;;5050999;28;20454;-71
2022/07/12 04:11:32;;;;;;;3.85;2.00;;;15.00;99.90;;;;;;5051170;28;20063;-71
2022/07/12 04:13:58;;;;;;;5.00;2.13;;;14.90;99.90;;;;;;5049776;28;20045;-71
2022/07/12 04:16:23;;;;;;;5.60;2.40;;;15.20;99.90;;;;;;5049715;28;20099;-69
2022/07/12 04:18:49;;;;;;;4.68;2.58;;;15.10;99.90;;;;;;5050334;28;20029;-69
2022/07/12 04:21:15;;;;;;;14.38;2.42;;;15.00;99.90;;;;;;5050801;28;20085;-69
2022/07/12 04:23:40;;;;;;;3.85;2.10;;;15.00;99.90;;;;;;5049404;28;20041;-71
2022/07/12 04:26:06;;;;;;;2.65;1.80;;;15.30;99.90;;;;;;5050944;28;20048;-69
2022/07/12 04:28:31;;;;;;;1.33;1.23;;;15.10;99.90;;;;;;5049685;28;20518;-69
2022/07/12 04:30:57;;;;;;;8.38;1.85;;;15.00;99.90;;;;;;5050694;28;20419;-70
2022/07/12 04:33:23;;;;;;;2.60;1.95;;;15.10;99.90;;;;;;5049665;28;20123;-71
2022/07/12 04:35:48;;;;;;;1.55;1.42;;;15.00;99.90;;;;;;5049823;28;20461;-69
2022/07/12 04:38:14;;;;;;;2.65;1.65;;;15.10;99.90;;;;;;5032995;28;20079;-69
2022/07/12 04:40:40;;;;;;;2.70;1.60;;;15.40;99.90;;;;;;5049464;28;20403;-69
2022/07/12 04:43:05;;;;;;;1.70;1.60;;;15.20;99.90;;;;;;5050563;28;20040;-71
2022/07/12 04:45:31;;;;;;;2.40;1.50;;;15.30;99.90;;;;;;5032927;28;20195;-69
2022/07/12 04:47:57;;;;;;;1.92;1.70;;;15.50;99.90;;;;;;5050925;28;20037;-69
2022/07/12 04:50:22;;;;;;;2.33;1.70;;;15.30;99.90;;;;;;5049153;28;20037;-69
2022/07/12 04:52:48;;;;;;;2.13;1.70;;;15.80;99.90;;;;;;5049302;28;20049;-70
2022/07/12 04:55:13;;;;;;;2.30;2.03;;;15.60;99.90;;;;;;5050700;28;20048;-69
2022/07/12 04:57:39;;;;;;;2.28;1.90;;;15.70;99.90;;;;;;5049494;28;20076;-69
2022/07/12 05:00:06;;;;;;;4.80;2.05;;;15.80;99.90;;;;;;5052249;28;20063;-70
2022/07/12 05:02:33;;;;;;;15.10;3.45;;;15.80;99.90;;;;;;5052857;28;20116;-69
2022/07/12 05:04:59;;;;;;;3.10;1.90;;;15.90;99.90;;;;;;5036125;28;20037;-69
2022/07/12 05:07:24;;;;;;;2.67;2.17;;;15.90;99.90;;;;;;5054107;28;20048;-69
2022/07/12 05:09:51;;;;;;;1.80;1.60;;;16.10;99.90;;;;;;5052538;28;20116;-69
2022/07/12 05:12:17;;;;;;;2.53;2.30;;;16.50;99.90;;;;;;5052533;28;20491;-69
2022/07/12 05:14:43;;;;;;;2.10;1.90;;;16.30;99.90;;;;;;5036290;28;20037;-69
2022/07/12 05:17:09;;;;;;;2.00;1.80;;;16.20;99.90;;;;;;5052721;28;20037;-69
2022/07/12 05:19:34;;;;;;;2.38;1.92;;;16.10;99.90;;;;;;5052360;28;20045;-69
2022/07/12 05:22:02;;;;;;;2.22;2.03;;;16.20;99.90;;;;;;5052915;28;20033;-69
2022/07/12 05:24:28;;;;;;;2.55;2.08;;;16.10;99.90;;;;;;5053817;28;20044;-69
2022/07/12 05:26:53;;;;;;;2.47;1.63;;;16.30;99.90;;;;;;5052520;28;20650;-69
2022/07/12 05:29:19;;;;;;;3.15;2.45;;;16.40;99.90;;;;;;5035519;28;20055;-68
2022/07/12 05:31:45;;;;;;;3.15;2.28;;;16.70;99.90;;;;;;5053811;28;20048;-69
2022/07/12 05:34:10;;;;;;;4.00;2.35;;;16.50;99.90;;;;;;5052565;28;20051;-70
2022/07/12 05:36:36;;;;;;;2.95;2.25;;;16.60;99.90;;;;;;5052302;28;20444;-69
2022/07/12 05:39:01;;;;;;;2.80;2.20;;;16.60;99.90;;;;;;5052040;28;20495;-74
2022/07/12 05:41:27;;;;;;;3.72;2.72;;;16.50;99.90;;;;;;5062546;28;20060;-70
2022/07/12 05:43:52;;;;;;;3.80;2.00;;;16.50;99.90;;;;;;5055593;28;20032;-71
2022/07/12 05:46:18;;;;;;;3.05;2.45;;;16.50;99.90;;;;;;5071746;28;20050;-69
2022/07/12 05:48:43;;;;;;;3.50;1.95;;;16.60;99.90;;;;;;5070405;28;20067;-69
2022/07/12 05:53:53;;;;;;;3.20;1.90;;;16.50;99.90;;;;;;5072276;28;20047;-71
2022/07/12 05:56:18;;;;;;;4.18;2.67;;;16.70;99.90;;;;;;5071979;28;20423;-70
2022/07/12 05:58:44;;;;;;;2.60;2.28;;;16.70;99.90;;;;;;5071600;28;20045;-68
2022/07/12 06:01:09;;;;;;;5.25;3.03;;;16.50;99.90;;;;;;5071721;28;20029;-70
2022/07/12 06:03:35;;;;;;;4.05;2.30;;;16.80;99.90;;;;;;5054996;28;20086;-70
2022/07/12 06:06:01;;;;;;;2.70;1.90;;;16.70;99.90;;;;;;5071508;28;20041;-69
2022/07/12 06:08:27;;;;;;;4.30;2.80;;;16.70;99.90;;;;;;5053914;28;20041;-70
2022/07/12 06:10:53;;;;;;;2.55;2.05;;;17.30;99.90;;;;;;5063957;28;20038;-69
2022/07/12 06:13:19;;;;;;;3.67;2.30;;;17.10;99.90;;;;;;5060326;28;20119;-70
2022/07/12 06:15:44;;;;;;;2.38;2.10;;;16.80;99.90;;;;;;5063072;28;20048;-71
2022/07/12 06:18:10;;;;;;;2.58;2.30;;;17.20;99.90;;;;;;5061958;28;20036;-69
2022/07/12 06:20:35;;;;;;;2.72;2.25;;;17.30;99.90;;;;;;5063896;28;20061;-69
2022/07/12 06:23:01;;;;;;;3.70;2.13;;;17.60;99.90;;;;;;5059784;28;20035;-70
2022/07/12 06:25:27;;;;;;;2.72;2.30;;;17.60;99.90;;;;;;5061326;28;20536;-72
2022/07/12 06:27:52;;;;;;;2.22;1.95;;;17.60;99.90;;;;;;5044902;28;20048;-69
2022/07/12 06:30:19;;;;;;;2.20;1.90;;;17.60;99.90;;;;;;5066784;28;20041;-70
2022/07/12 06:32:46;;;;;;;2.17;1.95;;;17.80;99.90;;;;;;5059304;28;20040;-71
2022/07/12 06:35:16;;;;;;;3.33;2.58;;;17.90;99.90;;;;;;5051466;28;20041;-70
2022/07/12 06:37:41;;;;;;;2.80;2.30;;;18.00;99.90;;;;;;5034033;28;20052;-69
2022/07/12 06:40:08;;;;;;;2.85;2.13;;;18.50;99.90;;;;;;5051752;28;20040;-69
2022/07/12 06:42:36;;;;;;;3.10;2.50;;;18.30;99.90;;;;;;5093913;22;20044;-70
2022/07/12 06:45:03;;;;;;;2.63;2.30;;;18.60;99.90;;;;;;5037206;28;20120;-69
2022/07/12 06:47:29;;;;;;;6.00;2.38;;;18.50;99.90;;;;;;5070866;28;20032;-69
2022/07/12 06:49:54;;;;;;;2.50;2.10;;;20.70;99.90;;;;;;5071213;28;20124;-71
2022/07/12 06:52:20;;;;;;;2.38;2.13;;;19.80;99.90;;;;;;5069930;28;20063;-70
2022/07/12 06:54:46;;;;;;;2.33;2.13;;;19.10;99.90;;;;;;5045454;28;20468;-69
2022/07/12 06:57:11;;;;;;;4.63;2.00;;;18.70;99.90;;;;;;5054142;28;20510;-70
2022/07/12 06:59:37;;;;;;;2.63;2.28;;;18.60;99.90;;;;;;5070299;28;20029;-70
2022/07/12 07:02:04;;;;;;;3.40;1.80;;;19.40;99.90;;;;;;5031700;28;20033;-70
2022/07/12 07:04:29;;;;;;;2.42;2.10;;;18.80;99.90;;;;;;5049176;28;20044;-70
2022/07/12 07:06:55;;;;;;;2.80;2.55;;;19.10;99.90;;;;;;5044561;28;20036;-71
2022/07/12 07:09:21;;;;;;;5.30;2.38;;;19.40;99.90;;;;;;5051335;28;20045;-70
2022/07/12 07:11:46;;;;;;;3.17;2.20;;;19.50;99.90;;;;;;5042751;28;20047;-70
2022/07/12 07:14:12;;;;;;;3.20;2.22;;;19.60;99.90;;;;;;5044556;28;20093;-70
2022/07/12 07:16:38;;;;;;;4.57;2.60;;;19.70;99.90;;;;;;5047126;28;20044;-70
2022/07/12 07:19:05;;;;;;;3.10;2.25;;;20.30;99.90;;;;;;5055776;28;20033;-70
2022/07/12 07:21:31;;;;;;;3.72;2.55;;;20.90;99.90;;;;;;5038722;28;20045;-70
2022/07/12 07:23:56;;;;;;;3.53;3.22;;;21.50;99.90;;;;;;5051967;28;20041;-70
2022/07/12 07:26:22;;;;;;;3.50;2.50;;;20.40;99.90;;;;;;5057675;28;20048;-71
2022/07/12 07:31:36;;;;;;;4.15;3.15;;;20.60;99.90;;;;;;5071459;28;20076;-70
2022/07/12 07:34:02;;;;;;;3.33;2.40;;;20.70;99.90;;;;;;5067233;28;20506;-70
2022/07/12 07:36:28;;;;;;;6.15;3.17;;;20.50;99.90;;;;;;5033745;28;20045;-70
2022/07/12 07:38:53;;;;;;;3.10;2.60;;;20.90;99.90;;;;;;5033406;28;20029;-70
2022/07/12 07:41:19;;;;;;;7.32;3.65;;;21.20;99.90;;;;;;5033372;28;20037;-71
2022/07/12 07:43:44;;;;;;;3.90;2.88;;;21.00;99.90;;;;;;5033657;28;20450;-70
2022/07/12 07:46:10;;;;;;;3.88;2.45;;;21.50;99.90;;;;;;5057328;28;20040;-70
2022/07/12 07:48:36;;;;;;;2.70;2.50;;;21.00;99.90;;;;;;5053613;28;20040;-70
2022/07/12 07:51:01;;;;;;;4.50;3.35;;;20.50;99.90;;;;;;5049156;28;20521;-70
2022/07/12 07:53:27;;;;;;;5.22;2.30;;;20.80;99.90;;;;;;5051697;28;20036;-70
2022/07/12 07:55:52;;;;;;;3.13;2.53;;;21.80;99.90;;;;;;5032974;28;20499;-70
2022/07/12 07:58:20;;;;;;;3.45;2.92;;;21.00;99.90;;;;;;5033606;28;20029;-70
2022/07/12 08:00:46;;;;;;;2.75;2.42;;;20.60;99.90;;;;;;5050658;28;20220;-72
2022/07/12 08:03:12;;;;;;;4.40;2.83;;;20.70;99.90;;;;;;5042489;28;20032;-71
2022/07/12 08:05:38;;;;;;;2.45;2.25;;;20.60;99.90;;;;;;5071484;28;20032;-70
2022/07/12 08:08:03;;;;;;;2.50;2.30;;;20.40;99.90;;;;;;5058964;28;20051;-70
2022/07/12 08:10:29;;;;;;;4.28;3.08;;;20.50;99.90;;;;;;5045164;28;20399;-70
2022/07/12 08:12:55;;;;;;;3.20;2.72;;;20.90;99.90;;;;;;5052510;28;20473;-70
2022/07/12 08:15:20;;;;;;;3.15;2.53;;;21.00;99.90;;;;;;5038669;28;20514;-70
2022/07/12 08:17:46;;;;;;;4.25;2.53;;;20.70;99.90;;;;;;5054312;28;20075;-71
2022/07/12 08:20:11;;;;;;;3.22;2.75;;;20.80;99.90;;;;;;5016239;28;20060;-71
2022/07/12 08:22:44;;;;;;;3.40;3.03;;;21.30;99.90;;;;;;5032901;28;20039;-71
2022/07/12 08:25:10;;;;;;;;;;;21.70;99.90;;;;;;5033827;28;20120;-71
2022/07/12 08:27:35;;;;;;;3.33;2.38;;;21.10;99.90;;;;;;5040934;28;19963;-71
2022/07/12 08:30:01;;;;;;;4.05;2.85;;;21.20;99.90;;;;;;5016624;28;20065;-71
2022/07/12 08:32:26;;;;;;;5.20;2.65;;;21.60;99.90;;;;;;5033126;28;20044;-71
2022/07/12 08:34:52;;;;;;;3.05;2.47;;;21.80;99.90;;;;;;5062774;28;20095;-71
2022/07/12 08:37:18;;;;;;;3.42;2.83;;;21.90;99.90;;;;;;5034904;28;20045;-71
2022/07/12 08:39:44;;;;;;;4.20;2.92;;;22.10;99.90;;;;;;5064739;28;20449;-71
2022/07/12 08:42:15;;;;;;;2.85;2.65;;;22.40;99.90;;;;;;5048344;28;20078;-71
2022/07/12 08:44:40;;;;;;;5.05;2.55;;;22.20;99.90;;;;;;5061588;28;20033;-72
2022/07/12 08:47:08;;;;;;;2.38;2.17;;;22.20;99.90;;;;;;5060913;28;20453;-71
2022/07/12 08:49:33;;;;;;;3.58;2.28;;;22.00;99.90;;;;;;5045744;28;20058;-71
2022/07/12 08:51:59;;;;;;;2.97;2.15;;;22.50;99.90;;;;;;5064505;28;20111;-71
2022/07/12 08:54:25;;;;;;;3.92;2.30;;;22.30;99.90;;;;;;5068421;28;20048;-72
2022/07/12 08:56:50;;;;;;;3.88;2.42;;;22.50;99.90;;;;;;5052563;28;20043;-70
2022/07/12 08:59:20;;;;;;;3.85;3.08;;;22.60;99.90;;;;;;5039863;28;20036;-70
2022/07/12 09:01:56;;;;;;;2.83;2.42;;;22.10;99.90;;;;;;5044842;28;20048;-70
2022/07/12 09:04:22;;;;;;;3.65;2.67;;;23.00;99.90;;;;;;5064241;28;20044;-70
2022/07/12 09:06:48;;;;;;;3.40;2.90;;;23.00;99.90;;;;;;5054849;28;20033;-71
2022/07/12 09:09:27;;;;;;;3.67;3.28;;;22.90;99.90;;;;;;5058312;28;20036;-70
2022/07/12 09:11:53;;;;;;;2.85;2.40;;;23.10;99.90;;;;;;5073033;28;20119;-70
2022/07/12 09:14:20;;;;;;;3.60;2.95;;;23.10;99.90;;;;;;5074175;28;20182;-71
2022/07/12 09:17:03;;;;;;;3.63;3.33;;;23.00;99.90;;;;;;5044512;28;20041;-70
2022/07/12 09:19:29;;;;;;;;;;;23.00;99.90;;;;;;5035682;28;20518;-71
2022/07/12 09:21:55;;;;;;;4.32;2.92;;;23.00;99.90;;;;;;5053361;28;19960;-71
2022/07/12 09:24:25;;;;;;;2.65;2.30;;;24.00;99.90;;;;;;5035991;28;20029;-70
2022/07/12 09:26:59;;;;;;;3.72;3.08;;;23.40;99.90;;;;;;5034993;28;20171;-70
2022/07/12 09:29:25;;;;;;;4.00;3.58;;;24.40;99.90;;;;;;5018287;28;20041;-71
2022/07/12 09:37:20;;;;;;;4.43;3.60;;;23.50;99.90;;;;;;5034147;28;20522;-71
2022/07/12 09:39:47;;;;;;;3.83;3.33;;;24.70;99.90;;;;;;5048068;28;20044;-71
2022/07/12 09:42:13;;;;;;;4.25;3.58;;;24.50;99.90;;;;;;5058145;28;20036;-71
2022/07/12 09:44:42;;;;;;;4.90;4.00;;;23.80;99.90;;;;;;5043350;28;20086;-72
2022/07/12 09:47:13;;;;;;;4.35;3.95;;;23.80;99.90;;;;;;5034712;28;20064;-71
2022/07/12 09:49:39;;;;;;;4.40;3.40;;;24.40;99.90;;;;;;5041553;28;20047;-69
2022/07/12 09:52:09;;;;;;;4.45;3.53;;;24.20;99.90;;;;;;5055361;28;20037;-72
2022/07/12 09:54:40;;;;;;;6.45;3.75;;;24.40;99.90;;;;;;5054855;28;20036;-72
2022/07/12 09:57:29;;;;;;;5.13;4.00;;;24.90;99.90;;;;;;5044348;28;20040;-70
2022/07/12 09:59:56;;;;;;;4.30;3.90;;;24.30;99.90;;;;;;5054044;28;20079;-71
2022/07/12 10:02:22;;;;;;;5.30;4.80;;;25.20;99.90;;;;;;5072710;28;20033;-71
2022/07/12 10:04:48;;;;;;;5.97;4.28;;;24.60;99.90;;;;;;5026486;28;20518;-71
2022/07/12 10:07:15;;;;;;;5.32;4.78;;;24.70;99.90;;;;;;5034677;28;20068;-71
2022/07/12 10:09:44;;;;;;;5.40;4.70;;;25.00;99.90;;;;;;5034569;28;20402;-71
2022/07/12 10:12:16;;;;;;;6.38;4.40;;;24.60;99.90;;;;;;5057655;28;20037;-71
2022/07/12 10:14:42;;;;;;;6.55;5.25;;;24.20;99.90;;;;;;5054593;28;20040;-71
2022/07/12 10:17:12;;;;;;;8.27;5.38;;;24.40;99.90;;;;;;5061752;28;20120;-71
2022/07/12 10:19:38;;;;;;;7.10;6.00;;;24.30;99.90;;;;;;5070577;28;20036;-71
2022/07/12 10:22:06;;;;;;;8.80;6.40;;;24.90;99.90;;;;;;5027403;28;20182;-72
2022/07/12 10:24:46;;;;;;;5.03;4.45;;;24.80;99.90;;;;;;5072141;28;20515;-72
2022/07/12 10:27:15;;;;;;;5.97;4.57;;;24.70;99.90;;;;;;5053653;28;20086;-71
2022/07/12 10:29:46;;;;;;;6.03;5.32;;;25.10;99.90;;;;;;5070733;28;20044;-71
2022/07/12 10:32:26;;;;;;;6.70;5.15;;;24.90;99.90;;;;;;5052320;28;20052;-72
2022/07/12 10:35:06;;;;;;;5.57;4.88;;;25.00;99.90;;;;;;5054933;28;20097;-72
2022/07/12 10:37:33;;;;;;;5.20;4.15;;;25.00;99.90;;;;;;5037780;28;20091;-72
2022/07/12 10:40:25;;;;;;;6.78;4.25;;;25.30;99.90;;;;;;5053910;28;20142;-72
2022/07/12 10:43:00;;;;;;;5.63;4.38;;;25.20;99.90;;;;;;5032367;28;20055;-72
2022/07/12 10:45:38;;;;;;;5.80;4.38;;;25.30;99.90;;;;;;5037569;28;20086;-72
2022/07/12 10:48:24;;;;;;;6.18;3.25;;;25.60;99.90;;;;;;5033652;28;20061;-72
2022/07/12 10:50:56;;;;;;;5.55;3.90;;;25.80;99.90;;;;;;5047659;28;20052;-71
2022/07/12 10:53:40;;;;;;;9.05;4.82;;;25.70;99.90;;;;;;5050674;28;20052;-70
2022/07/12 10:56:14;;;;;;;6.57;5.80;;;25.60;99.90;;;;;;5022389;28;20124;-71
2022/07/12 10:58:41;;;;;;;7.03;4.30;;;25.20;99.90;;;;;;5033815;28;20091;-70
2022/07/12 11:01:10;;;;;;;6.82;4.38;;;26.60;99.90;;;;;;5051338;28;20123;-70
2022/07/12 11:03:44;;;;;;;5.28;4.32;;;25.40;99.90;;;;;;5071820;28;20028;-70
2022/07/12 11:06:15;;;;;;;7.93;4.18;;;25.90;99.90;;;;;;5043544;28;20041;-71
2022/07/12 11:09:03;;;;;;;5.07;3.63;;;26.40;99.90;;;;;;5060018;28;20072;-71
2022/07/12 11:11:35;;;;;;;4.97;3.65;;;25.70;99.90;;;;;;5033200;28;20068;-70
2022/07/12 11:14:01;;;;;;;6.00;5.05;;;26.30;99.90;;;;;;5060150;28;20414;-71
2022/07/12 11:16:29;;;;;;;7.15;3.80;;;26.10;99.90;;;;;;5051580;28;20049;-71
2022/07/12 11:18:55;;;;;;;5.50;4.53;;;26.10;99.90;;;;;;5016864;28;20051;-71
2022/07/12 11:21:21;;;;;;;5.28;4.75;;;26.30;99.90;;;;;;5039656;28;20032;-71
2022/07/12 11:23:47;;;;;;;5.50;4.25;;;26.10;99.90;;;;;;5053154;28;20062;-71
2022/07/12 11:26:14;;;;;;;5.25;4.13;;;25.90;99.90;;;;;;5045738;28;20064;-71
2022/07/12 11:28:41;;;;;;;5.20;3.92;;;26.00;99.90;;;;;;5033428;28;20044;-71
2022/07/12 11:31:11;;;;;;;6.35;3.60;;;25.90;99.90;;;;;;5051170;28;20090;-71
2022/07/12 11:33:42;;;;;;;3.30;2.75;;;26.20;99.90;;;;;;5052836;28;20143;-71
2022/07/12 11:36:12;;;;;;;4.88;2.95;;;26.40;99.90;;;;;;5033471;28;20521;-71
2022/07/12 11:38:40;;;;;;;5.50;3.95;;;26.30;99.90;;;;;;5035886;28;20037;-71
2022/07/12 11:41:06;;;;;;;4.40;3.20;;;27.80;99.90;;;;;;5049767;28;20044;-71
2022/07/12 11:43:33;;;;;;;3.75;2.88;;;26.40;99.90;;;;;;5036373;28;20028;-71
2022/07/12 11:46:00;;;;;;;5.18;3.88;;;26.70;99.90;;;;;;5070287;28;20040;-71
2022/07/12 11:48:26;;;;;;;3.15;2.78;;;26.30;99.90;;;;;;5053407;28;20097;-72
2022/07/12 11:50:53;;;;;;;5.63;3.13;;;26.40;99.90;;;;;;5031999;28;20050;-71
2022/07/12 11:53:24;;;;;;;4.55;2.72;;;26.40;99.90;;;;;;5065148;28;20052;-71
2022/07/12 11:55:52;;;;;;;4.70;2.60;;;26.40;99.90;;;;;;5052843;28;20067;-71
2022/07/12 11:58:19;;;;;;;3.08;2.60;;;26.90;99.90;;;;;;5026205;28;20078;-71
2022/07/12 12:00:46;;;;;;;2.40;2.13;;;26.90;99.90;;;;;;5070843;28;20040;-71
2022/07/12 12:03:13;;;;;;;4.15;2.22;;;26.70;99.90;;;;;;5064098;28;20038;-71
2022/07/12 12:05:39;;;;;;;3.35;2.13;;;27.10;99.90;;;;;;5060751;28;20487;-71
2022/07/12 12:08:06;;;;;;;3.20;2.40;;;27.20;99.90;;;;;;5052955;28;20402;-70
2022/07/12 12:10:33;;;;;;;5.70;2.13;;;27.10;99.90;;;;;;5062893;28;20115;-72
2022/07/12 12:13:00;;;;;;;1.70;1.60;;;27.50;99.90;;;;;;5040589;28;20090;-72
2022/07/12 12:15:31;;;;;;;1.45;1.35;;;27.40;99.90;;;;;;5050562;28;20048;-71
2022/07/12 12:18:02;;;;;;;2.63;1.30;;;27.30;99.90;;;;;;5038044;28;20044;-71
2022/07/12 12:20:38;;;;;;;2.15;1.67;;;27.40;99.90;;;;;;5056855;28;20517;-71
2022/07/12 12:23:18;;;;;;;1.63;1.50;;;27.70;99.90;;;;;;5049358;28;20060;-71
2022/07/12 12:25:45;;;;;;;3.55;1.10;;;27.50;99.90;;;;;;5036990;28;20075;-71
2022/07/12 12:28:12;;;;;;;2.65;1.33;;;27.60;99.90;;;;;;5054968;28;20037;-72
2022/07/12 12:30:55;;;;;;;2.45;1.20;;;27.40;99.90;;;;;;5065785;28;20378;-72
2022/07/12 12:33:41;;;;;;;1.67;1.08;;;27.40;99.90;;;;;;5044773;28;20485;-72
2022/07/12 12:36:28;;;;;;;2.53;1.17;;;27.40;99.90;;;;;;5040000;28;20094;-72
2022/07/12 12:38:56;;;;;;;2.60;1.10;;;27.50;99.90;;;;;;5052482;28;20033;-71
2022/07/12 12:41:23;;;;;;;4.28;0.90;;;27.40;99.90;;;;;;5053815;28;20124;-72
2022/07/12 12:43:57;;;;;;;1.85;1.02;;;27.50;99.90;;;;;;5089775;22;20414;-70
2022/07/12 12:46:34;;;;;;;1.23;0.85;;;27.90;99.80;;;;;;5068702;28;20059;-70
2022/07/12 12:49:00;;;;;;;1.83;1.00;;;27.40;99.40;;;;;;5055635;28;20036;-72
2022/07/12 12:51:25;;;;;;;1.65;0.80;;;27.40;99.60;;;;;;5072205;28;20091;-70
2022/07/12 12:53:56;;;;;;;1.98;0.60;;;27.30;99.60;;;;;;5066331;28;20037;-70
2022/07/12 12:56:21;;;;;;;1.33;0.88;;;27.30;98.60;;;;;;5061164;28;20083;-71
2022/07/12 12:58:48;;;;;;;1.30;0.88;;;27.60;99.00;;;;;;5064511;28;20061;-70
2022/07/12 13:01:14;;;;;;;2.22;0.93;;;27.60;99.60;;;;;;5063254;28;20119;-71